sensor_id;sensor_type;location;lat;lon;timestamp;temperature;humidity
13470;DHT22;6807;48.682;9.032;2023-04-08T00:01:33;6.40;1.00
13470;DHT22;6807;48.682;9.032;2023-04-08T00:04:00;6.40;1.00
13470;DHT22;6807;48.682;9.032;2023-04-08T00:06:27;6.40;1.00
13470;DHT22;6807;48.682;9.032;2023-04-08T00:08:55;6.40;1.00
13470;DHT22;6807;48.682;9.032;2023-04-08T00:11:22;6.50;1.00
13470;DHT22;6807;48.682;9.032;2023-04-08T00:13:49;6.50;1.00
13470;DHT22;6807;48.682;9.032;2023-04-08T00:16:16;6.60;1.00
13470;DHT22;6807;48.682;9.032;2023-04-08T00:18:43;6.60;1.00
13470;DHT22;6807;48.682;9.032;2023-04-08T00:21:10;6.60;1.00
13470;DHT22;6807;48.682;9.032;2023-04-08T00:23:38;6.60;1.00
13470;DHT22;6807;48.682;9.032;2023-04-08T00:26:06;6.60;1.00
13470;DHT22;6807;48.682;9.032;2023-04-08T00:28:33;6.60;1.00
13470;DHT22;6807;48.682;9.032;2023-04-08T00:31:01;6.70;1.00
13470;DHT22;6807;48.682;9.032;2023-04-08T00:33:28;6.60;1.00
13470;DHT22;6807;48.682;9.032;2023-04-08T00:35:55;6.70;1.00
13470;DHT22;6807;48.682;9.032;2023-04-08T00:38:22;6.70;1.00
13470;DHT22;6807;48.682;9.032;2023-04-08T00:40:49;6.70;1.00
13470;DHT22;6807;48.682;9.032;2023-04-08T00:43:17;6.70;1.00
13470;DHT22;6807;48.682;9.032;2023-04-08T00:45:45;6.70;1.00
13470;DHT22;6807;48.682;9.032;2023-04-08T00:48:12;6.60;1.00
13470;DHT22;6807;48.682;9.032;2023-04-08T00:50:39;6.60;1.00
13470;DHT22;6807;48.682;9.032;2023-04-08T00:53:06;6.60;1.00
13470;DHT22;6807;48.682;9.032;2023-04-08T00:55:33;6.60;1.00
13470;DHT22;6807;48.682;9.032;2023-04-08T00:58:00;4.70;1.00
13470;DHT22;6807;48.682;9.032;2023-04-08T01:00:30;6.60;1.00
13470;DHT22;6807;48.682;9.032;2023-04-08T01:03:04;6.60;1.00
13470;DHT22;6807;48.682;9.032;2023-04-08T01:05:38;6.60;1.00
13470;DHT22;6807;48.682;9.032;2023-04-08T01:08:11;6.50;1.00
13470;DHT22;6807;48.682;9.032;2023-04-08T01:10:39;6.50;1.00
13470;DHT22;6807;48.682;9.032;2023-04-08T01:13:09;6.60;1.00
13470;DHT22;6807;48.682;9.032;2023-04-08T01:15:39;6.50;1.00
13470;DHT22;6807;48.682;9.032;2023-04-08T01:18:09;6.50;1.00
13470;DHT22;6807;48.682;9.032;2023-04-08T01:20:38;6.50;1.00
13470;DHT22;6807;48.682;9.032;2023-04-08T01:23:12;6.50;1.00
13470;DHT22;6807;48.682;9.032;2023-04-08T01:25:45;6.50;1.00
13470;DHT22;6807;48.682;9.032;2023-04-08T01:28:15;6.50;1.00
13470;DHT22;6807;48.682;9.032;2023-04-08T01:30:44;6.50;1.00
13470;DHT22;6807;48.682;9.032;2023-04-08T01:33:14;6.40;1.00
13470;DHT22;6807;48.682;9.032;2023-04-08T01:35:41;6.40;1.00
13470;DHT22;6807;48.682;9.032;2023-04-08T01:38:13;6.40;1.00
13470;DHT22;6807;48.682;9.032;2023-04-08T01:40:41;6.40;1.00
13470;DHT22;6807;48.682;9.032;2023-04-08T01:43:12;6.40;1.00
13470;DHT22;6807;48.682;9.032;2023-04-08T01:45:39;6.40;1.00
13470;DHT22;6807;48.682;9.032;2023-04-08T01:48:07;6.30;1.00
13470;DHT22;6807;48.682;9.032;2023-04-08T01:50:34;6.30;1.00
13470;DHT22;6807;48.682;9.032;2023-04-08T01:53:03;6.30;1.00
13470;DHT22;6807;48.682;9.032;2023-04-08T01:55:33;6.30;1.00
13470;DHT22;6807;48.682;9.032;2023-04-08T01:58:00;6.30;1.00
13470;DHT22;6807;48.682;9.032;2023-04-08T02:00:30;6.30;1.00
13470;DHT22;6807;48.682;9.032;2023-04-08T02:02:58;6.30;1.00
13470;DHT22;6807;48.682;9.032;2023-04-08T02:05:26;6.30;1.00
13470;DHT22;6807;48.682;9.032;2023-04-08T02:07:53;6.30;1.00
13470;DHT22;6807;48.682;9.032;2023-04-08T02:10:20;6.30;1.00
13470;DHT22;6807;48.682;9.032;2023-04-08T02:12:47;6.30;1.00
13470;DHT22;6807;48.682;9.032;2023-04-08T02:15:14;6.30;1.00
13470;DHT22;6807;48.682;9.032;2023-04-08T02:17:46;6.30;1.00
13470;DHT22;6807;48.682;9.032;2023-04-08T02:20:17;6.30;1.00
13470;DHT22;6807;48.682;9.032;2023-04-08T02:22:48;6.30;1.00
13470;DHT22;6807;48.682;9.032;2023-04-08T02:25:16;6.30;1.00
13470;DHT22;6807;48.682;9.032;2023-04-08T02:27:47;6.20;1.00
13470;DHT22;6807;48.682;9.032;2023-04-08T02:30:15;6.20;1.00
13470;DHT22;6807;48.682;9.032;2023-04-08T02:32:44;6.20;1.00
13470;DHT22;6807;48.682;9.032;2023-04-08T02:35:13;6.20;1.00
13470;DHT22;6807;48.682;9.032;2023-04-08T02:37:40;6.10;1.00
13470;DHT22;6807;48.682;9.032;2023-04-08T02:40:22;6.10;1.00
13470;DHT22;6807;48.682;9.032;2023-04-08T02:42:49;6.10;1.00
13470;DHT22;6807;48.682;9.032;2023-04-08T02:45:16;6.00;1.00
13470;DHT22;6807;48.682;9.032;2023-04-08T02:47:45;6.10;1.00
13470;DHT22;6807;48.682;9.032;2023-04-08T02:50:12;6.00;1.00
13470;DHT22;6807;48.682;9.032;2023-04-08T02:52:39;6.00;1.00
13470;DHT22;6807;48.682;9.032;2023-04-08T02:55:07;6.20;1.00
13470;DHT22;6807;48.682;9.032;2023-04-08T02:57:35;6.00;1.00
13470;DHT22;6807;48.682;9.032;2023-04-08T03:00:03;6.00;1.00
13470;DHT22;6807;48.682;9.032;2023-04-08T03:02:30;6.00;1.00
13470;DHT22;6807;48.682;9.032;2023-04-08T03:04:58;6.00;1.00
13470;DHT22;6807;48.682;9.032;2023-04-08T03:07:25;6.00;1.00
13470;DHT22;6807;48.682;9.032;2023-04-08T03:09:53;6.00;1.00
13470;DHT22;6807;48.682;9.032;2023-04-08T03:12:20;5.90;1.00
13470;DHT22;6807;48.682;9.032;2023-04-08T03:14:47;5.90;1.00
13470;DHT22;6807;48.682;9.032;2023-04-08T03:17:15;6.00;1.00
13470;DHT22;6807;48.682;9.032;2023-04-08T03:19:42;6.00;1.00
13470;DHT22;6807;48.682;9.032;2023-04-08T03:22:10;5.90;1.00
13470;DHT22;6807;48.682;9.032;2023-04-08T03:24:37;5.90;1.00
13470;DHT22;6807;48.682;9.032;2023-04-08T03:27:04;5.90;1.00
13470;DHT22;6807;48.682;9.032;2023-04-08T03:29:33;5.90;1.00
13470;DHT22;6807;48.682;9.032;2023-04-08T03:32:00;5.90;1.00
13470;DHT22;6807;48.682;9.032;2023-04-08T03:34:26;5.90;1.00
13470;DHT22;6807;48.682;9.032;2023-04-08T03:36:53;5.90;1.00
13470;DHT22;6807;48.682;9.032;2023-04-08T03:39:22;6.00;1.00
13470;DHT22;6807;48.682;9.032;2023-04-08T03:41:48;5.90;1.00
13470;DHT22;6807;48.682;9.032;2023-04-08T03:44:15;5.90;1.00
13470;DHT22;6807;48.682;9.032;2023-04-08T03:46:42;5.90;1.00
13470;DHT22;6807;48.682;9.032;2023-04-08T03:49:09;5.90;1.00
13470;DHT22;6807;48.682;9.032;2023-04-08T03:51:36;5.90;1.00
13470;DHT22;6807;48.682;9.032;2023-04-08T03:54:03;5.90;1.00
13470;DHT22;6807;48.682;9.032;2023-04-08T03:56:31;5.90;1.00
13470;DHT22;6807;48.682;9.032;2023-04-08T03:58:58;5.90;1.00
13470;DHT22;6807;48.682;9.032;2023-04-08T04:01:25;5.90;1.00
13470;DHT22;6807;48.682;9.032;2023-04-08T04:03:52;5.80;1.00
13470;DHT22;6807;48.682;9.032;2023-04-08T04:06:19;6.00;1.00
13470;DHT22;6807;48.682;9.032;2023-04-08T04:08:46;5.90;1.00
13470;DHT22;6807;48.682;9.032;2023-04-08T04:11:14;5.90;1.00
13470;DHT22;6807;48.682;9.032;2023-04-08T04:13:42;5.80;1.00
13470;DHT22;6807;48.682;9.032;2023-04-08T04:16:09;5.80;1.00
13470;DHT22;6807;48.682;9.032;2023-04-08T04:18:36;5.80;1.00
13470;DHT22;6807;48.682;9.032;2023-04-08T04:21:04;5.80;1.00
13470;DHT22;6807;48.682;9.032;2023-04-08T04:23:32;5.80;1.00
13470;DHT22;6807;48.682;9.032;2023-04-08T04:25:59;5.80;1.00
13470;DHT22;6807;48.682;9.032;2023-04-08T04:28:26;5.80;1.00
13470;DHT22;6807;48.682;9.032;2023-04-08T04:30:54;5.90;1.00
13470;DHT22;6807;48.682;9.032;2023-04-08T04:33:21;5.80;1.00
13470;DHT22;6807;48.682;9.032;2023-04-08T04:35:48;5.80;1.00
13470;DHT22;6807;48.682;9.032;2023-04-08T04:38:14;5.80;1.00
13470;DHT22;6807;48.682;9.032;2023-04-08T04:40:41;5.80;1.00
13470;DHT22;6807;48.682;9.032;2023-04-08T04:43:09;5.80;1.00
13470;DHT22;6807;48.682;9.032;2023-04-08T04:45:36;5.80;1.00
13470;DHT22;6807;48.682;9.032;2023-04-08T04:48:04;5.80;1.00
13470;DHT22;6807;48.682;9.032;2023-04-08T04:50:31;5.80;1.00
13470;DHT22;6807;48.682;9.032;2023-04-08T04:52:58;5.90;1.00
13470;DHT22;6807;48.682;9.032;2023-04-08T04:55:25;5.80;1.00
13470;DHT22;6807;48.682;9.032;2023-04-08T04:57:52;5.80;1.00
13470;DHT22;6807;48.682;9.032;2023-04-08T05:00:19;6.10;1.00
13470;DHT22;6807;48.682;9.032;2023-04-08T05:02:46;5.80;1.00
13470;DHT22;6807;48.682;9.032;2023-04-08T05:05:15;5.80;1.00
13470;DHT22;6807;48.682;9.032;2023-04-08T05:07:42;5.80;1.00
13470;DHT22;6807;48.682;9.032;2023-04-08T05:10:09;5.80;1.00
13470;DHT22;6807;48.682;9.032;2023-04-08T05:12:36;5.90;1.00
13470;DHT22;6807;48.682;9.032;2023-04-08T05:15:04;6.00;1.00
13470;DHT22;6807;48.682;9.032;2023-04-08T05:17:31;6.00;1.00
13470;DHT22;6807;48.682;9.032;2023-04-08T05:19:58;6.00;1.00
13470;DHT22;6807;48.682;9.032;2023-04-08T05:22:27;6.00;1.00
13470;DHT22;6807;48.682;9.032;2023-04-08T05:24:54;6.10;1.00
13470;DHT22;6807;48.682;9.032;2023-04-08T05:27:21;6.10;1.00
13470;DHT22;6807;48.682;9.032;2023-04-08T05:29:48;6.00;1.00
13470;DHT22;6807;48.682;9.032;2023-04-08T05:32:15;6.10;1.00
13470;DHT22;6807;48.682;9.032;2023-04-08T05:34:42;6.10;1.00
13470;DHT22;6807;48.682;9.032;2023-04-08T05:37:09;6.20;1.00
13470;DHT22;6807;48.682;9.032;2023-04-08T05:39:38;6.20;1.00
13470;DHT22;6807;48.682;9.032;2023-04-08T05:42:05;6.20;1.00
13470;DHT22;6807;48.682;9.032;2023-04-08T05:44:32;6.30;1.00
13470;DHT22;6807;48.682;9.032;2023-04-08T05:46:59;6.20;1.00
13470;DHT22;6807;48.682;9.032;2023-04-08T05:49:26;6.30;1.00
13470;DHT22;6807;48.682;9.032;2023-04-08T05:51:53;6.40;1.00
13470;DHT22;6807;48.682;9.032;2023-04-08T05:54:20;6.40;1.00
13470;DHT22;6807;48.682;9.032;2023-04-08T05:56:48;6.50;1.00
13470;DHT22;6807;48.682;9.032;2023-04-08T05:59:15;6.50;1.00
13470;DHT22;6807;48.682;9.032;2023-04-08T06:01:42;6.70;1.00
13470;DHT22;6807;48.682;9.032;2023-04-08T06:04:09;6.80;1.00
13470;DHT22;6807;48.682;9.032;2023-04-08T06:06:36;6.80;1.00
13470;DHT22;6807;48.682;9.032;2023-04-08T06:09:04;6.90;1.00
13470;DHT22;6807;48.682;9.032;2023-04-08T06:11:31;7.00;1.00
13470;DHT22;6807;48.682;9.032;2023-04-08T06:13:59;7.00;1.00
13470;DHT22;6807;48.682;9.032;2023-04-08T06:16:26;7.10;1.00
13470;DHT22;6807;48.682;9.032;2023-04-08T06:18:53;7.20;99.90
13470;DHT22;6807;48.682;9.032;2023-04-08T06:21:20;7.10;99.90
13470;DHT22;6807;48.682;9.032;2023-04-08T06:23:47;7.20;99.90
13470;DHT22;6807;48.682;9.032;2023-04-08T06:26:14;7.20;99.90
13470;DHT22;6807;48.682;9.032;2023-04-08T06:28:41;7.30;99.90
13470;DHT22;6807;48.682;9.032;2023-04-08T06:31:10;7.40;99.90
13470;DHT22;6807;48.682;9.032;2023-04-08T06:33:36;7.30;99.90
13470;DHT22;6807;48.682;9.032;2023-04-08T06:36:05;7.50;99.90
13470;DHT22;6807;48.682;9.032;2023-04-08T06:38:32;7.60;99.90
13470;DHT22;6807;48.682;9.032;2023-04-08T06:41:01;7.50;99.90
13470;DHT22;6807;48.682;9.032;2023-04-08T06:43:29;7.40;99.90
13470;DHT22;6807;48.682;9.032;2023-04-08T06:45:56;7.40;99.90
13470;DHT22;6807;48.682;9.032;2023-04-08T06:48:24;7.30;99.90
13470;DHT22;6807;48.682;9.032;2023-04-08T06:50:54;7.30;99.90
13470;DHT22;6807;48.682;9.032;2023-04-08T06:53:22;7.40;99.90
13470;DHT22;6807;48.682;9.032;2023-04-08T06:55:50;7.40;99.90
13470;DHT22;6807;48.682;9.032;2023-04-08T06:58:17;7.50;99.90
13470;DHT22;6807;48.682;9.032;2023-04-08T07:00:44;7.50;99.90
13470;DHT22;6807;48.682;9.032;2023-04-08T07:03:11;7.70;99.90
13470;DHT22;6807;48.682;9.032;2023-04-08T07:05:40;7.70;99.90
13470;DHT22;6807;48.682;9.032;2023-04-08T07:08:07;7.60;99.90
13470;DHT22;6807;48.682;9.032;2023-04-08T07:10:34;7.70;99.90
13470;DHT22;6807;48.682;9.032;2023-04-08T07:13:01;7.90;99.90
13470;DHT22;6807;48.682;9.032;2023-04-08T07:15:28;8.00;99.90
13470;DHT22;6807;48.682;9.032;2023-04-08T07:17:55;8.00;99.90
13470;DHT22;6807;48.682;9.032;2023-04-08T07:20:23;8.10;99.90
13470;DHT22;6807;48.682;9.032;2023-04-08T07:22:51;8.10;99.90
13470;DHT22;6807;48.682;9.032;2023-04-08T07:25:29;8.00;99.90
13470;DHT22;6807;48.682;9.032;2023-04-08T07:28:02;8.00;99.90
13470;DHT22;6807;48.682;9.032;2023-04-08T07:30:29;7.90;99.90
13470;DHT22;6807;48.682;9.032;2023-04-08T07:32:56;7.90;99.90
13470;DHT22;6807;48.682;9.032;2023-04-08T07:35:24;7.80;99.90
13470;DHT22;6807;48.682;9.032;2023-04-08T07:37:52;7.60;99.90
13470;DHT22;6807;48.682;9.032;2023-04-08T07:40:20;7.60;99.90
13470;DHT22;6807;48.682;9.032;2023-04-08T07:42:47;7.50;99.90
13470;DHT22;6807;48.682;9.032;2023-04-08T07:45:14;7.50;99.90
13470;DHT22;6807;48.682;9.032;2023-04-08T07:47:41;7.60;99.90
13470;DHT22;6807;48.682;9.032;2023-04-08T07:50:08;7.90;99.90
13470;DHT22;6807;48.682;9.032;2023-04-08T07:52:35;7.90;99.90
13470;DHT22;6807;48.682;9.032;2023-04-08T07:55:04;8.00;99.90
13470;DHT22;6807;48.682;9.032;2023-04-08T07:57:32;8.00;99.90
13470;DHT22;6807;48.682;9.032;2023-04-08T08:03:14;8.20;99.90
13470;DHT22;6807;48.682;9.032;2023-04-08T08:05:41;8.40;99.90
13470;DHT22;6807;48.682;9.032;2023-04-08T08:08:08;8.40;99.90
13470;DHT22;6807;48.682;9.032;2023-04-08T08:10:38;8.40;99.90
13470;DHT22;6807;48.682;9.032;2023-04-08T08:13:05;8.50;99.90
13470;DHT22;6807;48.682;9.032;2023-04-08T08:15:32;8.60;99.90
13470;DHT22;6807;48.682;9.032;2023-04-08T08:17:59;8.70;99.90
13470;DHT22;6807;48.682;9.032;2023-04-08T08:20:26;8.70;99.90
13470;DHT22;6807;48.682;9.032;2023-04-08T08:22:53;8.60;99.90
13470;DHT22;6807;48.682;9.032;2023-04-08T08:25:20;8.80;95.20
13470;DHT22;6807;48.682;9.032;2023-04-08T08:27:48;9.10;99.90
13470;DHT22;6807;48.682;9.032;2023-04-08T08:30:17;9.20;90.30
13470;DHT22;6807;48.682;9.032;2023-04-08T08:32:45;9.20;74.90
13470;DHT22;6807;48.682;9.032;2023-04-08T08:35:13;9.60;96.20
13470;DHT22;6807;48.682;9.032;2023-04-08T08:37:39;9.60;27.90
13470;DHT22;6807;48.682;9.032;2023-04-08T08:40:08;9.50;19.30
13470;DHT22;6807;48.682;9.032;2023-04-08T08:42:35;9.50;40.60
13470;DHT22;6807;48.682;9.032;2023-04-08T08:45:05;9.50;6.50
13470;DHT22;6807;48.682;9.032;2023-04-08T08:47:32;9.60;49.50
13470;DHT22;6807;48.682;9.032;2023-04-08T08:49:59;9.70;1.00
13470;DHT22;6807;48.682;9.032;2023-04-08T08:52:26;9.60;11.50
13470;DHT22;6807;48.682;9.032;2023-04-08T08:54:57;9.70;1.00
13470;DHT22;6807;48.682;9.032;2023-04-08T08:57:24;9.70;1.00
13470;DHT22;6807;48.682;9.032;2023-04-08T08:59:52;9.90;1.00
13470;DHT22;6807;48.682;9.032;2023-04-08T09:02:28;9.90;1.00
13470;DHT22;6807;48.682;9.032;2023-04-08T09:04:56;10.00;1.00
13470;DHT22;6807;48.682;9.032;2023-04-08T09:07:24;10.20;1.00
13470;DHT22;6807;48.682;9.032;2023-04-08T09:09:52;10.00;1.00
13470;DHT22;6807;48.682;9.032;2023-04-08T09:12:20;9.90;1.00
13470;DHT22;6807;48.682;9.032;2023-04-08T09:14:47;10.10;1.00
13470;DHT22;6807;48.682;9.032;2023-04-08T09:17:14;10.10;1.00
13470;DHT22;6807;48.682;9.032;2023-04-08T09:20:03;10.80;1.00
13470;DHT22;6807;48.682;9.032;2023-04-08T09:22:34;11.40;1.00
13470;DHT22;6807;48.682;9.032;2023-04-08T09:25:22;12.00;1.00
13470;DHT22;6807;48.682;9.032;2023-04-08T09:27:49;13.20;1.00
13470;DHT22;6807;48.682;9.032;2023-04-08T09:30:17;13.00;1.00
13470;DHT22;6807;48.682;9.032;2023-04-08T09:32:48;13.50;1.00
13470;DHT22;6807;48.682;9.032;2023-04-08T09:35:17;13.90;1.00
13470;DHT22;6807;48.682;9.032;2023-04-08T09:37:44;13.60;1.00
13470;DHT22;6807;48.682;9.032;2023-04-08T09:40:12;13.00;1.00
13470;DHT22;6807;48.682;9.032;2023-04-08T09:42:44;12.60;1.00
13470;DHT22;6807;48.682;9.032;2023-04-08T09:45:15;12.70;1.00
13470;DHT22;6807;48.682;9.032;2023-04-08T09:47:52;13.10;1.00
13470;DHT22;6807;48.682;9.032;2023-04-08T09:50:26;12.70;1.00
13470;DHT22;6807;48.682;9.032;2023-04-08T09:53:00;12.60;1.00
13470;DHT22;6807;48.682;9.032;2023-04-08T09:55:29;12.50;1.00
13470;DHT22;6807;48.682;9.032;2023-04-08T09:58:00;12.30;1.00
13470;DHT22;6807;48.682;9.032;2023-04-08T10:00:31;11.90;1.00
13470;DHT22;6807;48.682;9.032;2023-04-08T10:03:07;11.80;1.00
13470;DHT22;6807;48.682;9.032;2023-04-08T10:05:39;12.00;1.00
13470;DHT22;6807;48.682;9.032;2023-04-08T10:08:07;12.10;1.00
13470;DHT22;6807;48.682;9.032;2023-04-08T10:10:35;12.40;1.00
13470;DHT22;6807;48.682;9.032;2023-04-08T10:13:04;12.90;1.00
13470;DHT22;6807;48.682;9.032;2023-04-08T10:15:32;13.50;1.00
13470;DHT22;6807;48.682;9.032;2023-04-08T10:18:29;13.70;1.00
13470;DHT22;6807;48.682;9.032;2023-04-08T10:20:58;13.80;1.00
13470;DHT22;6807;48.682;9.032;2023-04-08T10:26:35;13.90;1.00
13470;DHT22;6807;48.682;9.032;2023-04-08T10:32:07;13.00;1.00
13470;DHT22;6807;48.682;9.032;2023-04-08T10:34:34;13.10;1.00
13470;DHT22;6807;48.682;9.032;2023-04-08T10:37:18;13.70;1.00
13470;DHT22;6807;48.682;9.032;2023-04-08T10:39:48;14.20;1.00
13470;DHT22;6807;48.682;9.032;2023-04-08T10:42:16;14.70;1.00
13470;DHT22;6807;48.682;9.032;2023-04-08T10:44:44;14.10;1.00
13470;DHT22;6807;48.682;9.032;2023-04-08T10:47:12;13.10;1.00
13470;DHT22;6807;48.682;9.032;2023-04-08T10:49:39;12.90;1.00
13470;DHT22;6807;48.682;9.032;2023-04-08T10:52:07;12.90;1.00
13470;DHT22;6807;48.682;9.032;2023-04-08T10:54:36;12.40;1.00
13470;DHT22;6807;48.682;9.032;2023-04-08T10:57:04;12.20;1.00
13470;DHT22;6807;48.682;9.032;2023-04-08T10:59:32;12.00;1.00
13470;DHT22;6807;48.682;9.032;2023-04-08T11:01:59;12.00;1.00
13470;DHT22;6807;48.682;9.032;2023-04-08T11:04:26;12.10;1.00
13470;DHT22;6807;48.682;9.032;2023-04-08T11:06:53;11.60;1.00
13470;DHT22;6807;48.682;9.032;2023-04-08T11:09:20;11.20;1.00
13470;DHT22;6807;48.682;9.032;2023-04-08T11:11:49;11.20;1.00
13470;DHT22;6807;48.682;9.032;2023-04-08T11:14:20;11.20;1.00
13470;DHT22;6807;48.682;9.032;2023-04-08T11:16:53;11.10;1.00
13470;DHT22;6807;48.682;9.032;2023-04-08T11:19:20;10.80;1.00
13470;DHT22;6807;48.682;9.032;2023-04-08T11:21:47;10.50;1.00
13470;DHT22;6807;48.682;9.032;2023-04-08T11:24:18;10.40;1.00
13470;DHT22;6807;48.682;9.032;2023-04-08T11:26:50;10.30;1.00
13470;DHT22;6807;48.682;9.032;2023-04-08T11:29:18;10.10;1.00
13470;DHT22;6807;48.682;9.032;2023-04-08T11:31:47;10.80;1.00
13470;DHT22;6807;48.682;9.032;2023-04-08T11:34:21;9.90;1.00
13470;DHT22;6807;48.682;9.032;2023-04-08T11:36:49;10.00;1.00
13470;DHT22;6807;48.682;9.032;2023-04-08T11:39:16;10.10;1.00
13470;DHT22;6807;48.682;9.032;2023-04-08T11:41:43;10.30;1.00
13470;DHT22;6807;48.682;9.032;2023-04-08T11:44:11;10.30;1.00
13470;DHT22;6807;48.682;9.032;2023-04-08T11:46:38;10.30;1.00
13470;DHT22;6807;48.682;9.032;2023-04-08T11:49:07;10.40;1.00
13470;DHT22;6807;48.682;9.032;2023-04-08T11:51:53;10.10;1.00
13470;DHT22;6807;48.682;9.032;2023-04-08T11:54:26;10.30;1.00
13470;DHT22;6807;48.682;9.032;2023-04-08T11:56:54;10.30;1.00
13470;DHT22;6807;48.682;9.032;2023-04-08T11:59:24;10.40;1.00
13470;DHT22;6807;48.682;9.032;2023-04-08T12:01:52;10.40;1.00
13470;DHT22;6807;48.682;9.032;2023-04-08T12:04:19;10.30;1.00
13470;DHT22;6807;48.682;9.032;2023-04-08T12:06:46;10.40;1.00
13470;DHT22;6807;48.682;9.032;2023-04-08T12:09:14;10.20;1.00
13470;DHT22;6807;48.682;9.032;2023-04-08T12:11:41;10.20;1.00
13470;DHT22;6807;48.682;9.032;2023-04-08T12:14:08;10.10;1.00
13470;DHT22;6807;48.682;9.032;2023-04-08T12:16:37;10.10;1.00
13470;DHT22;6807;48.682;9.032;2023-04-08T12:19:03;10.30;1.00
13470;DHT22;6807;48.682;9.032;2023-04-08T12:21:32;10.40;1.00
13470;DHT22;6807;48.682;9.032;2023-04-08T12:24:00;10.20;1.00
13470;DHT22;6807;48.682;9.032;2023-04-08T12:26:27;10.30;1.00
13470;DHT22;6807;48.682;9.032;2023-04-08T12:28:54;10.50;1.00
13470;DHT22;6807;48.682;9.032;2023-04-08T12:31:22;10.50;1.00
13470;DHT22;6807;48.682;9.032;2023-04-08T12:33:50;10.50;1.00
13470;DHT22;6807;48.682;9.032;2023-04-08T12:36:20;10.30;1.00
13470;DHT22;6807;48.682;9.032;2023-04-08T12:38:47;10.40;1.00
13470;DHT22;6807;48.682;9.032;2023-04-08T12:41:14;10.40;1.00
13470;DHT22;6807;48.682;9.032;2023-04-08T12:43:40;10.50;1.00
13470;DHT22;6807;48.682;9.032;2023-04-08T12:46:07;10.40;1.00
13470;DHT22;6807;48.682;9.032;2023-04-08T12:48:34;10.20;1.00
13470;DHT22;6807;48.682;9.032;2023-04-08T12:51:04;10.00;1.00
13470;DHT22;6807;48.682;9.032;2023-04-08T12:53:31;10.00;1.00
13470;DHT22;6807;48.682;9.032;2023-04-08T12:55:59;9.60;1.00
13470;DHT22;6807;48.682;9.032;2023-04-08T12:58:26;9.50;99.90
13470;DHT22;6807;48.682;9.032;2023-04-08T13:00:53;9.50;1.00
13470;DHT22;6807;48.682;9.032;2023-04-08T13:03:22;9.40;1.00
13470;DHT22;6807;48.682;9.032;2023-04-08T13:05:49;9.40;1.00
13470;DHT22;6807;48.682;9.032;2023-04-08T13:08:18;9.40;1.00
13470;DHT22;6807;48.682;9.032;2023-04-08T13:10:45;7.70;1.00
13470;DHT22;6807;48.682;9.032;2023-04-08T13:13:12;9.30;1.00
13470;DHT22;6807;48.682;9.032;2023-04-08T13:15:39;9.40;1.00
13470;DHT22;6807;48.682;9.032;2023-04-08T13:18:06;9.40;1.00
13470;DHT22;6807;48.682;9.032;2023-04-08T13:20:32;9.40;1.00
13470;DHT22;6807;48.682;9.032;2023-04-08T13:23:00;9.40;1.00
13470;DHT22;6807;48.682;9.032;2023-04-08T13:25:28;9.50;1.00
13470;DHT22;6807;48.682;9.032;2023-04-08T13:27:55;9.60;1.00
13470;DHT22;6807;48.682;9.032;2023-04-08T13:30:26;9.70;1.00
13470;DHT22;6807;48.682;9.032;2023-04-08T13:32:53;9.80;1.00
13470;DHT22;6807;48.682;9.032;2023-04-08T13:35:20;9.80;1.00
13470;DHT22;6807;48.682;9.032;2023-04-08T13:37:48;9.90;1.00
13470;DHT22;6807;48.682;9.032;2023-04-08T13:40:16;9.80;1.00
13470;DHT22;6807;48.682;9.032;2023-04-08T13:42:44;10.00;1.00
13470;DHT22;6807;48.682;9.032;2023-04-08T13:45:11;9.70;1.00
13470;DHT22;6807;48.682;9.032;2023-04-08T13:47:38;9.90;1.00
13470;DHT22;6807;48.682;9.032;2023-04-08T13:50:06;10.00;1.00
13470;DHT22;6807;48.682;9.032;2023-04-08T13:52:34;9.90;1.00
13470;DHT22;6807;48.682;9.032;2023-04-08T13:55:01;10.00;1.00
13470;DHT22;6807;48.682;9.032;2023-04-08T13:57:28;9.20;1.00
13470;DHT22;6807;48.682;9.032;2023-04-08T13:59:57;9.90;1.00
13470;DHT22;6807;48.682;9.032;2023-04-08T14:02:24;10.00;1.00
13470;DHT22;6807;48.682;9.032;2023-04-08T14:04:51;10.00;1.00
13470;DHT22;6807;48.682;9.032;2023-04-08T14:07:18;10.10;1.00
13470;DHT22;6807;48.682;9.032;2023-04-08T14:09:45;10.00;1.00
13470;DHT22;6807;48.682;9.032;2023-04-08T14:12:12;10.10;1.00
13470;DHT22;6807;48.682;9.032;2023-04-08T14:14:39;10.20;1.00
13470;DHT22;6807;48.682;9.032;2023-04-08T14:17:08;10.10;1.00
13470;DHT22;6807;48.682;9.032;2023-04-08T14:19:35;10.00;1.00
13470;DHT22;6807;48.682;9.032;2023-04-08T14:22:02;10.20;1.00
13470;DHT22;6807;48.682;9.032;2023-04-08T14:24:29;10.20;1.00
13470;DHT22;6807;48.682;9.032;2023-04-08T14:26:56;10.20;1.00
13470;DHT22;6807;48.682;9.032;2023-04-08T14:29:23;10.30;1.00
13470;DHT22;6807;48.682;9.032;2023-04-08T14:31:50;10.40;1.00
13470;DHT22;6807;48.682;9.032;2023-04-08T14:34:18;10.50;1.00
13470;DHT22;6807;48.682;9.032;2023-04-08T14:36:45;10.50;1.00
13470;DHT22;6807;48.682;9.032;2023-04-08T14:39:15;10.50;1.00
13470;DHT22;6807;48.682;9.032;2023-04-08T14:41:42;10.60;1.00
13470;DHT22;6807;48.682;9.032;2023-04-08T14:44:12;10.50;1.00
13470;DHT22;6807;48.682;9.032;2023-04-08T14:46:39;10.50;1.00
13470;DHT22;6807;48.682;9.032;2023-04-08T14:49:06;10.40;1.00
13470;DHT22;6807;48.682;9.032;2023-04-08T14:51:37;10.30;1.00
13470;DHT22;6807;48.682;9.032;2023-04-08T14:54:04;10.20;1.00
13470;DHT22;6807;48.682;9.032;2023-04-08T14:56:31;10.20;1.00
13470;DHT22;6807;48.682;9.032;2023-04-08T14:58:58;10.10;1.00
13470;DHT22;6807;48.682;9.032;2023-04-08T15:01:25;10.10;1.00
13470;DHT22;6807;48.682;9.032;2023-04-08T15:03:53;10.20;1.00
13470;DHT22;6807;48.682;9.032;2023-04-08T15:06:23;10.60;1.00
13470;DHT22;6807;48.682;9.032;2023-04-08T15:08:52;10.80;1.00
13470;DHT22;6807;48.682;9.032;2023-04-08T15:11:19;10.70;1.00
13470;DHT22;6807;48.682;9.032;2023-04-08T15:13:46;10.70;1.00
13470;DHT22;6807;48.682;9.032;2023-04-08T15:16:14;10.80;1.00
13470;DHT22;6807;48.682;9.032;2023-04-08T15:18:42;10.80;1.00
13470;DHT22;6807;48.682;9.032;2023-04-08T15:21:08;10.80;1.00
13470;DHT22;6807;48.682;9.032;2023-04-08T15:23:38;10.60;1.00
13470;DHT22;6807;48.682;9.032;2023-04-08T15:26:08;10.40;1.00
13470;DHT22;6807;48.682;9.032;2023-04-08T15:28:35;10.50;1.00
13470;DHT22;6807;48.682;9.032;2023-04-08T15:31:04;10.10;1.00
13470;DHT22;6807;48.682;9.032;2023-04-08T15:33:31;10.10;1.00
13470;DHT22;6807;48.682;9.032;2023-04-08T15:35:58;10.10;1.00
13470;DHT22;6807;48.682;9.032;2023-04-08T15:38:28;9.90;1.00
13470;DHT22;6807;48.682;9.032;2023-04-08T15:40:54;9.70;1.00
13470;DHT22;6807;48.682;9.032;2023-04-08T15:43:23;9.70;1.00
13470;DHT22;6807;48.682;9.032;2023-04-08T15:45:50;9.60;1.00
13470;DHT22;6807;48.682;9.032;2023-04-08T15:48:17;9.50;1.00
13470;DHT22;6807;48.682;9.032;2023-04-08T15:50:45;9.40;1.00
13470;DHT22;6807;48.682;9.032;2023-04-08T15:53:20;9.40;1.00
13470;DHT22;6807;48.682;9.032;2023-04-08T15:55:47;9.20;1.00
13470;DHT22;6807;48.682;9.032;2023-04-08T15:58:15;9.20;1.00
13470;DHT22;6807;48.682;9.032;2023-04-08T16:00:47;9.30;1.00
13470;DHT22;6807;48.682;9.032;2023-04-08T16:03:16;9.40;1.00
13470;DHT22;6807;48.682;9.032;2023-04-08T16:05:43;9.20;1.00
13470;DHT22;6807;48.682;9.032;2023-04-08T16:08:11;9.20;1.00
13470;DHT22;6807;48.682;9.032;2023-04-08T16:10:45;9.20;1.00
13470;DHT22;6807;48.682;9.032;2023-04-08T16:13:33;9.20;1.00
13470;DHT22;6807;48.682;9.032;2023-04-08T16:16:51;9.20;1.00
13470;DHT22;6807;48.682;9.032;2023-04-08T16:19:19;9.10;1.00
13470;DHT22;6807;48.682;9.032;2023-04-08T16:22:05;9.10;1.00
13470;DHT22;6807;48.682;9.032;2023-04-08T16:24:46;9.10;1.00
13470;DHT22;6807;48.682;9.032;2023-04-08T16:27:13;9.10;1.00